createdAt,value
2023-03-12T00:00:29.785Z,1.56
2023-03-12T00:01:32.750Z,1.49
2023-03-12T00:02:30.016Z,1.4
2023-03-12T00:03:30.035Z,1.5
2023-03-12T00:04:29.788Z,1.43
2023-03-12T00:05:29.778Z,1.52
2023-03-12T00:06:29.851Z,1.5
2023-03-12T00:07:29.880Z,1.5
2023-03-12T00:08:29.897Z,1.49
2023-03-12T00:09:29.829Z,1.42
2023-03-12T00:10:29.784Z,1.48
2023-03-12T00:11:29.835Z,1.48
2023-03-12T00:12:29.803Z,1.39
2023-03-12T00:13:29.804Z,1.43
2023-03-12T00:14:29.854Z,1.38
2023-03-12T00:15:29.843Z,1.39
2023-03-12T00:16:30.007Z,1.4
2023-03-12T00:17:29.819Z,1.42
2023-03-12T00:18:29.849Z,1.36
2023-03-12T00:19:29.811Z,1.38
2023-03-12T00:20:29.802Z,1.43
2023-03-12T00:21:29.848Z,1.36
2023-03-12T00:22:29.845Z,1.45
2023-03-12T00:23:29.682Z,1.31
2023-03-12T00:24:32.615Z,1.42
2023-03-12T00:25:29.874Z,1.4
2023-03-12T00:26:29.871Z,1.32
2023-03-12T00:27:29.834Z,1.31
2023-03-12T00:28:29.810Z,1.32
2023-03-12T00:29:29.826Z,1.28
2023-03-12T00:30:29.841Z,1.36
2023-03-12T00:31:30.164Z,1.3
2023-03-12T00:32:29.921Z,1.27
2023-03-12T00:33:29.846Z,1.34
2023-03-12T00:34:29.860Z,1.3
2023-03-12T00:35:29.893Z,1.32
2023-03-12T00:36:29.997Z,1.36
2023-03-12T00:37:29.827Z,1.36
2023-03-12T00:38:29.898Z,1.4
2023-03-12T00:39:29.853Z,1.27
2023-03-12T00:40:32.606Z,1.32
2023-03-12T00:41:29.891Z,1.36
2023-03-12T00:42:29.842Z,1.24
2023-03-12T00:43:29.857Z,1.32
2023-03-12T00:44:29.847Z,1.28
2023-03-12T00:45:29.855Z,1.31
2023-03-12T00:46:30.122Z,1.34
2023-03-12T00:47:29.854Z,1.32
2023-03-12T00:48:29.858Z,1.22
2023-03-12T00:49:29.873Z,1.2
2023-03-12T00:50:29.905Z,1.2
2023-03-12T00:51:31.186Z,1.2
2023-03-12T00:52:29.890Z,1.24
2023-03-12T00:53:29.869Z,1.16
2023-03-12T00:54:29.895Z,1.09
2023-03-12T00:55:29.878Z,1.13
2023-03-12T00:56:29.926Z,1.14
2023-03-12T00:57:29.852Z,1.1
2023-03-12T00:58:29.876Z,1.06
2023-03-12T00:59:29.880Z,1.04
2023-03-12T01:00:30.137Z,1.02
2023-03-12T01:01:29.951Z,1
2023-03-12T01:02:30.992Z,1
2023-03-12T01:03:29.893Z,1.03
2023-03-12T01:04:30.032Z,1
2023-03-12T01:05:29.870Z,0.99
2023-03-12T01:06:29.987Z,0.96
2023-03-12T01:07:29.897Z,0.96
2023-03-12T01:08:29.903Z,0.94
2023-03-12T01:09:29.879Z,0.92
2023-03-12T01:10:29.916Z,1
2023-03-12T01:11:29.928Z,1
2023-03-12T01:12:29.918Z,0.95
2023-03-12T01:13:32.666Z,0.96
2023-03-12T01:14:29.907Z,0.89
2023-03-12T01:15:29.890Z,0.92
2023-03-12T01:16:30.159Z,0.99
2023-03-12T01:17:29.915Z,1.04
2023-03-12T01:18:29.900Z,0.96
2023-03-12T01:19:29.953Z,1
2023-03-12T01:20:29.907Z,1
2023-03-12T01:21:29.976Z,0.96
2023-03-12T01:22:30.002Z,0.84
2023-03-12T01:23:29.912Z,0.95
2023-03-12T01:24:32.671Z,0.99
2023-03-12T01:25:29.933Z,0.99
2023-03-12T01:26:29.963Z,1.04
2023-03-12T01:27:29.922Z,0.95
2023-03-12T01:28:29.992Z,0.94
2023-03-12T01:29:29.958Z,1.03
2023-03-12T01:30:29.955Z,0.94
2023-03-12T01:31:30.213Z,0.94
2023-03-12T01:32:30.091Z,0.95
2023-03-12T01:33:29.938Z,0.91
2023-03-12T01:34:29.929Z,0.99
2023-03-12T01:35:33.284Z,0.91
2023-03-12T01:36:30.165Z,0.89
2023-03-12T01:37:29.928Z,0.96
2023-03-12T01:38:29.979Z,0.91
2023-03-12T01:39:29.959Z,0.86
2023-03-12T01:40:29.989Z,1
2023-03-12T01:41:29.968Z,0.94
2023-03-12T01:48:33.688Z,0.92
2023-03-12T01:49:30.028Z,0.85
2023-03-12T01:50:29.947Z,0.91
2023-03-12T01:51:32.813Z,0.89
2023-03-12T01:52:30.093Z,0.89
2023-03-12T01:53:29.958Z,0.95
2023-03-12T01:54:29.994Z,0.78
2023-03-12T01:55:29.958Z,0.86
2023-03-12T01:56:29.987Z,0.96
2023-03-12T01:57:33.003Z,0.89
2023-03-12T01:58:29.949Z,0.88
2023-03-12T01:59:29.947Z,0.88
2023-03-12T02:00:30.004Z,0.94
2023-03-12T02:01:30.333Z,0.86
2023-03-12T02:02:30.494Z,1.12
2023-03-12T02:03:29.970Z,0.92
2023-03-12T02:04:30.025Z,0.94
2023-03-12T02:05:29.980Z,0.96
2023-03-12T02:06:29.993Z,0.99
2023-03-12T02:07:30.006Z,0.99
2023-03-12T02:08:32.750Z,1.02
2023-03-12T02:09:29.992Z,0.94
2023-03-12T02:10:30.027Z,0.96
2023-03-12T02:11:30.037Z,0.92
2023-03-12T02:12:30.006Z,0.99
2023-03-12T02:13:31.066Z,0.89
2023-03-12T02:14:30.003Z,0.88
2023-03-12T02:15:29.971Z,0.95
2023-03-12T02:16:32.923Z,0.85
2023-03-12T02:17:30.025Z,0.89
2023-03-12T02:18:30.005Z,0.99
2023-03-12T02:19:32.833Z,0.82
2023-03-12T02:20:30.043Z,0.95
2023-03-12T02:21:29.993Z,0.96
2023-03-12T02:22:30.022Z,0.81
2023-03-12T02:23:29.999Z,0.92
2023-03-12T02:24:33.281Z,0.92
2023-03-12T02:25:30.032Z,0.96
2023-03-12T02:26:30.032Z,0.95
2023-03-12T02:27:30.034Z,0.88
2023-03-12T02:28:30.032Z,0.95
2023-03-12T02:29:30.015Z,0.95
2023-03-12T02:30:30.029Z,1.28
2023-03-12T02:31:30.222Z,0.96
2023-03-12T02:32:30.206Z,1.02
2023-03-12T02:33:30.061Z,1.07
2023-03-12T02:34:30.026Z,1.09
2023-03-12T02:35:30.028Z,1.06
2023-03-12T02:36:30.103Z,1
2023-03-12T02:37:30.049Z,1.06
2023-03-12T02:38:30.014Z,1.03
2023-03-12T02:39:30.028Z,1.03
2023-03-12T02:40:30.024Z,1.09
2023-03-12T02:41:30.029Z,1.07
2023-03-12T02:42:30.080Z,1.06
2023-03-12T02:43:30.024Z,1.04
2023-03-12T02:44:30.121Z,1.07
2023-03-12T02:45:30.029Z,1.09
2023-03-12T02:46:30.189Z,1.1
2023-03-12T02:47:31.570Z,1.12
2023-03-12T02:48:30.031Z,1.12
2023-03-12T02:49:30.117Z,1.07
2023-03-12T02:50:30.037Z,1.14
2023-03-12T02:51:33.095Z,1.1
2023-03-12T02:52:30.112Z,1.07
2023-03-12T02:53:30.076Z,1.09
2023-03-12T02:54:30.054Z,1.16
2023-03-12T02:55:30.036Z,1.07
2023-03-12T02:56:30.073Z,1.07
2023-03-12T02:57:32.581Z,1.09
2023-03-12T02:58:30.049Z,1.02
2023-03-12T02:59:30.082Z,1.07
2023-03-12T03:00:30.073Z,1.13
2023-03-12T03:01:30.262Z,1.13
2023-03-12T03:02:30.097Z,0.99
2023-03-12T03:03:30.084Z,1.07
2023-03-12T03:04:30.416Z,1.04
2023-03-12T03:05:30.072Z,1.13
2023-03-12T03:06:30.068Z,1.09
2023-03-12T03:07:33.185Z,1.1
2023-03-12T03:08:30.086Z,1.16
2023-03-12T03:09:30.089Z,1.14
2023-03-12T03:10:30.121Z,1.18
2023-03-12T03:11:30.114Z,1.13
2023-03-12T03:12:30.147Z,1.16
2023-03-12T03:13:30.133Z,1.13
2023-03-12T03:14:30.082Z,1.12
2023-03-12T03:15:30.400Z,1.2
2023-03-12T03:16:30.069Z,1.14
2023-03-12T03:17:30.112Z,1.16
2023-03-12T03:18:33.516Z,1.21
2023-03-12T03:19:30.089Z,1.16
2023-03-12T03:20:30.096Z,1.16
2023-03-12T03:21:30.093Z,1.1
2023-03-12T03:22:30.081Z,1.18
2023-03-12T03:23:30.278Z,1.22
2023-03-12T03:24:30.122Z,1.21
2023-03-12T03:25:30.123Z,1.14
2023-03-12T03:26:30.113Z,1.27
2023-03-12T03:27:30.113Z,1.22
2023-03-12T03:28:30.117Z,1.25
2023-03-12T03:29:32.876Z,1.21
2023-03-12T03:30:30.093Z,1.24
2023-03-12T03:31:30.393Z,1.16
2023-03-12T03:32:30.247Z,1.2
2023-03-12T03:33:30.135Z,1.24
2023-03-12T03:34:30.117Z,1.18
2023-03-12T03:35:30.234Z,1.21
2023-03-12T03:36:30.110Z,1.21
2023-03-12T03:37:30.120Z,1.1
2023-03-12T03:38:30.156Z,1.16
2023-03-12T03:39:30.179Z,1.07
2023-03-12T03:40:33.249Z,1.18
2023-03-12T03:41:30.130Z,1.24
2023-03-12T03:42:30.121Z,1.18
2023-03-12T03:43:30.173Z,1.27
2023-03-12T03:44:30.124Z,1.18
2023-03-12T03:45:30.145Z,1.2
2023-03-12T03:46:30.415Z,1.16
2023-03-12T03:47:30.146Z,1.16
2023-03-12T03:48:30.183Z,1.21
2023-03-12T03:49:30.134Z,1.14
2023-03-12T03:50:30.138Z,1.2
2023-03-12T03:51:33.228Z,1.21
2023-03-12T03:52:30.159Z,1.22
2023-03-12T03:53:30.148Z,1.21
2023-03-12T03:54:30.161Z,1.18
2023-03-12T03:55:30.190Z,1.27
2023-03-12T03:56:30.131Z,1.24
2023-03-12T03:57:30.141Z,1.3
2023-03-12T03:58:30.180Z,1.25
2023-03-12T03:59:30.144Z,1.2
2023-03-12T04:00:30.144Z,1.27
2023-03-12T04:01:30.172Z,1.31
2023-03-12T04:02:30.384Z,1.32
2023-03-12T04:03:30.459Z,1.31
2023-03-12T04:04:30.162Z,1.32
2023-03-12T04:05:30.425Z,1.38
2023-03-12T04:06:30.201Z,1.25
2023-03-12T04:07:30.161Z,1.32
2023-03-12T04:08:30.182Z,1.32
2023-03-12T04:09:30.171Z,1.24
2023-03-12T04:10:30.189Z,1.32
2023-03-12T04:11:30.225Z,1.27
2023-03-12T04:12:30.166Z,1.28
2023-03-12T04:13:31.996Z,1.34
2023-03-12T04:14:30.157Z,1.28
2023-03-12T04:15:30.181Z,1.24
2023-03-12T04:16:30.427Z,1.34
2023-03-12T04:17:30.224Z,1.3
2023-03-12T04:18:33.065Z,1.25
2023-03-12T04:19:30.172Z,1.31
2023-03-12T04:20:30.222Z,1.27
2023-03-12T04:21:30.183Z,1.25
2023-03-12T04:22:30.189Z,1.28
2023-03-12T04:23:30.195Z,1.36
2023-03-12T04:24:33.030Z,1.32
2023-03-12T04:25:30.190Z,1.28
2023-03-12T04:26:30.192Z,1.25
2023-03-12T04:27:30.245Z,1.32
2023-03-12T04:28:30.210Z,1.2
2023-03-12T04:29:33.437Z,1.27
2023-03-12T04:30:30.199Z,1.36
2023-03-12T04:31:30.431Z,1.32
2023-03-12T04:32:30.388Z,1.25
2023-03-12T04:33:30.294Z,1.31
2023-03-12T04:34:30.219Z,1.31
2023-03-12T04:35:33.338Z,1.25
2023-03-12T04:36:30.229Z,1.25
2023-03-12T04:37:30.197Z,1.28
2023-03-12T04:38:30.197Z,1.32
2023-03-12T04:39:30.219Z,1.3
2023-03-12T04:40:33.246Z,1.3
2023-03-12T04:41:30.223Z,1.32
2023-03-12T04:42:30.230Z,1.3
2023-03-12T04:43:30.308Z,1.34
2023-03-12T04:44:30.225Z,1.38
2023-03-12T04:45:30.214Z,1.27
2023-03-12T04:46:33.092Z,1.4
2023-03-12T04:47:30.223Z,1.32
2023-03-12T04:48:30.256Z,1.32
2023-03-12T04:49:30.259Z,1.32
2023-03-12T04:50:30.244Z,1.34
2023-03-12T04:51:33.042Z,1.32
2023-03-12T04:52:30.250Z,1.34
2023-03-12T04:53:30.428Z,1.34
2023-03-12T04:54:30.236Z,1.3
2023-03-12T04:55:30.256Z,1.38
2023-03-12T04:56:30.226Z,1.4
2023-03-12T04:57:30.268Z,1.38
2023-03-12T04:58:30.243Z,1.39
2023-03-12T04:59:30.368Z,1.34
2023-03-12T05:00:30.245Z,1.32
2023-03-12T05:01:30.255Z,1.36
2023-03-12T05:02:30.360Z,1.36
2023-03-12T05:03:30.375Z,1.38
2023-03-12T05:04:32.509Z,1.39
2023-03-12T05:05:30.282Z,1.24
2023-03-12T05:06:30.293Z,1.39
2023-03-12T05:07:30.289Z,1.39
2023-03-12T05:08:30.295Z,1.36
2023-03-12T05:09:30.286Z,1.28
2023-03-12T05:10:30.344Z,1.32
2023-03-12T05:11:30.298Z,1.32
2023-03-12T05:12:30.282Z,1.25
2023-03-12T05:13:30.278Z,1.39
2023-03-12T05:14:30.324Z,1.4
2023-03-12T05:15:30.338Z,1.32
2023-03-12T05:16:30.471Z,1.34
2023-03-12T05:17:30.261Z,1.27
2023-03-12T05:18:33.050Z,1.38
2023-03-12T05:19:30.283Z,1.36
2023-03-12T05:20:30.281Z,1.36
2023-03-12T05:21:30.338Z,1.38
2023-03-12T05:22:30.271Z,1.36
2023-03-12T05:23:30.316Z,1.27
2023-03-12T05:24:30.307Z,1.43
2023-03-12T05:25:30.287Z,1.3
2023-03-12T05:26:30.349Z,1.28
2023-03-12T05:27:32.479Z,1.36
2023-03-12T05:28:31.328Z,1.36
2023-03-12T05:29:39.191Z,1.36
2023-03-12T05:30:30.299Z,1.4
2023-03-12T05:31:30.542Z,1.31
2023-03-12T05:32:30.533Z,1.39
2023-03-12T05:33:30.308Z,1.34
2023-03-12T05:34:33.611Z,1.34
2023-03-12T05:35:30.327Z,1.39
2023-03-12T05:36:30.313Z,1.34
2023-03-12T05:37:30.346Z,1.42
2023-03-12T05:38:30.330Z,1.38
2023-03-12T05:39:30.337Z,1.39
2023-03-12T05:40:30.325Z,1.39
2023-03-12T05:41:30.341Z,1.39
2023-03-12T05:42:30.316Z,1.42
2023-03-12T05:43:30.334Z,1.38
2023-03-12T05:44:30.378Z,1.43
2023-03-12T05:45:33.654Z,1.38
2023-03-12T05:46:30.308Z,1.42
2023-03-12T05:47:30.380Z,1.28
2023-03-12T05:48:30.323Z,1.3
2023-03-12T05:49:30.412Z,1.49
2023-03-12T05:50:30.355Z,1.36
2023-03-12T05:51:30.322Z,1.38
2023-03-12T05:52:30.325Z,1.42
2023-03-12T05:53:30.377Z,1.31
2023-03-12T05:54:30.382Z,1.43
2023-03-12T05:55:30.346Z,1.34
2023-03-12T05:56:33.491Z,1.34
2023-03-12T05:57:30.324Z,1.34
2023-03-12T05:58:30.335Z,1.36
2023-03-12T05:59:30.395Z,1.42
2023-03-12T06:00:30.346Z,1.5
2023-03-12T06:01:30.363Z,1.48
2023-03-12T06:02:30.491Z,1.34
2023-03-12T06:03:30.640Z,1.3
2023-03-12T06:04:30.349Z,1.42
2023-03-12T06:05:30.384Z,1.45
2023-03-12T06:06:30.335Z,1.45
2023-03-12T06:07:33.409Z,1.42
2023-03-12T06:08:30.339Z,1.53
2023-03-12T06:09:30.384Z,1.52
2023-03-12T06:10:30.336Z,1.61
2023-03-12T06:11:30.353Z,1.53
2023-03-12T06:12:30.350Z,1.63
2023-03-12T06:13:30.385Z,1.48
2023-03-12T06:14:30.401Z,1.53
2023-03-12T06:15:30.384Z,1.61
2023-03-12T06:16:30.516Z,1.64
2023-03-12T06:17:30.435Z,1.64
2023-03-12T06:18:33.256Z,1.71
2023-03-12T06:19:30.404Z,1.75
2023-03-12T06:20:30.410Z,1.75
2023-03-12T06:21:30.486Z,1.82
2023-03-12T06:22:30.384Z,1.82
2023-03-12T06:23:30.383Z,1.84
2023-03-12T06:24:30.383Z,1.86
2023-03-12T06:25:30.411Z,1.97
2023-03-12T06:26:30.388Z,1.95
2023-03-12T06:27:30.382Z,1.92
2023-03-12T06:28:30.379Z,2.03
2023-03-12T06:29:33.262Z,1.93
2023-03-12T06:30:30.423Z,1.97
2023-03-12T06:31:30.581Z,2.03
2023-03-12T06:32:30.600Z,2.03
2023-03-12T06:33:30.382Z,2.07
2023-03-12T06:34:30.436Z,2.05
2023-03-12T06:35:30.605Z,2.08
2023-03-12T06:36:30.404Z,2.1
2023-03-12T06:37:30.441Z,2.16
2023-03-12T06:38:30.420Z,2.22
2023-03-12T06:39:30.233Z,2.19
2023-03-12T06:40:33.505Z,2.15
2023-03-12T06:41:30.454Z,2.16
2023-03-12T06:42:30.416Z,2.22
2023-03-12T06:43:30.410Z,2.34
2023-03-12T06:44:30.458Z,2.41
2023-03-12T06:45:30.404Z,2.37
2023-03-12T06:46:30.732Z,2.46
2023-03-12T06:47:30.452Z,2.47
2023-03-12T06:48:30.419Z,2.43
2023-03-12T06:49:30.493Z,2.51
2023-03-12T06:50:30.438Z,2.54
2023-03-12T06:51:33.310Z,2.58
2023-03-12T06:52:30.547Z,2.65
2023-03-12T06:53:30.442Z,2.61
2023-03-12T06:54:30.425Z,2.7
2023-03-12T06:55:30.438Z,2.7
2023-03-12T06:56:33.489Z,2.91
2023-03-12T06:57:30.419Z,3.03
2023-03-12T06:58:30.541Z,3.18
2023-03-12T06:59:30.469Z,3.37
2023-03-12T07:00:30.431Z,3.43
2023-03-12T07:01:30.480Z,3.52
2023-03-12T07:02:33.511Z,3.53
2023-03-12T07:03:30.447Z,3.59
2023-03-12T07:04:30.430Z,3.63
2023-03-12T07:05:33.380Z,3.52
2023-03-12T07:06:30.441Z,3.52
2023-03-12T07:07:33.506Z,3.48
2023-03-12T07:08:30.446Z,3.53
2023-03-12T07:09:30.489Z,3.53
2023-03-12T07:10:30.373Z,3.52
2023-03-12T07:11:30.470Z,3.45
2023-03-12T07:12:30.460Z,3.5
2023-03-12T07:13:33.333Z,3.37
2023-03-12T07:14:30.495Z,3.41
2023-03-12T07:15:30.451Z,3.49
2023-03-12T07:16:30.612Z,3.43
2023-03-12T07:17:30.449Z,3.5
2023-03-12T07:18:33.323Z,3.45
2023-03-12T07:19:30.577Z,3.56
2023-03-12T07:20:30.469Z,3.56
2023-03-12T07:21:30.495Z,3.46
2023-03-12T07:22:30.591Z,3.53
2023-03-12T07:23:30.496Z,3.49
2023-03-12T07:24:30.529Z,3.48
2023-03-12T07:25:30.482Z,3.45
2023-03-12T07:26:30.488Z,3.46
2023-03-12T07:27:30.516Z,3.49
2023-03-12T07:28:30.629Z,3.52
2023-03-12T07:29:30.514Z,3.56
2023-03-12T07:30:30.584Z,3.55
2023-03-12T07:31:30.686Z,3.63
2023-03-12T07:32:30.639Z,3.58
2023-03-12T07:33:30.979Z,3.61
2023-03-12T07:34:31.044Z,3.67
2023-03-12T07:35:30.923Z,3.76
2023-03-12T07:36:31.162Z,3.74
2023-03-12T07:37:30.542Z,3.81
2023-03-12T07:38:30.775Z,3.88
2023-03-12T07:39:30.652Z,3.82
2023-03-12T07:40:30.616Z,3.76
2023-03-12T07:41:30.511Z,3.86
2023-03-12T07:42:30.667Z,3.86
2023-03-12T07:43:30.709Z,3.85
2023-03-12T07:44:30.551Z,3.85
2023-03-12T07:45:34.939Z,3.86
2023-03-12T07:46:30.615Z,3.89
2023-03-12T07:47:31.213Z,3.82
2023-03-12T07:48:30.659Z,3.85
2023-03-12T07:49:30.592Z,3.77
2023-03-12T07:50:30.840Z,3.82
2023-03-12T07:51:30.522Z,3.82
2023-03-12T07:52:30.713Z,3.85
2023-03-12T07:53:30.517Z,3.91
2023-03-12T07:54:30.799Z,3.86
2023-03-12T07:55:30.609Z,3.78
2023-03-12T07:56:30.816Z,3.88
2023-03-12T07:57:30.918Z,3.95
2023-03-12T07:58:30.877Z,4.18
2023-03-12T07:59:30.746Z,4.27
2023-03-12T08:00:30.916Z,4.38
2023-03-12T08:01:33.686Z,4.61
2023-03-12T08:02:30.947Z,4.46
2023-03-12T08:03:31.483Z,4.48
2023-03-12T08:04:31.043Z,4.53
2023-03-12T08:05:30.752Z,4.46
2023-03-12T08:06:30.515Z,4.56
2023-03-12T08:07:30.781Z,4.56
2023-03-12T08:08:30.947Z,4.5
2023-03-12T08:09:30.587Z,4.64
2023-03-12T08:10:30.960Z,4.46
2023-03-12T08:11:30.577Z,4.53
2023-03-12T08:12:33.644Z,4.53
2023-03-12T08:13:30.789Z,4.53
2023-03-12T08:14:30.637Z,4.5
2023-03-12T08:15:30.537Z,4.5
2023-03-12T08:16:30.748Z,4.48
2023-03-12T08:17:30.559Z,4.61
2023-03-12T08:18:30.577Z,4.63
2023-03-12T08:19:30.579Z,4.56
2023-03-12T08:20:30.803Z,4.46
2023-03-12T08:21:30.652Z,4.53
2023-03-12T08:22:30.569Z,4.58
2023-03-12T08:23:33.574Z,4.45
2023-03-12T08:24:30.602Z,4.52
2023-03-12T08:25:30.595Z,4.63
2023-03-12T08:26:30.573Z,4.66
2023-03-12T08:27:30.843Z,4.66
2023-03-12T08:28:31.687Z,4.56
2023-03-12T08:29:32.034Z,4.67
2023-03-12T08:30:33.143Z,4.76
2023-03-12T08:31:30.739Z,4.63
2023-03-12T08:32:30.970Z,4.74
2023-03-12T08:33:30.569Z,4.78
2023-03-12T08:34:33.432Z,4.84
2023-03-12T08:35:30.749Z,4.78
2023-03-12T08:36:30.690Z,4.84
2023-03-12T08:37:30.600Z,4.94
2023-03-12T08:38:30.578Z,5.04
2023-03-12T08:39:30.584Z,5
2023-03-12T08:40:30.728Z,5.15
2023-03-12T08:41:30.618Z,4.92
2023-03-12T08:42:30.597Z,5.04
2023-03-12T08:43:33.584Z,5.12
2023-03-12T08:44:30.614Z,5.1
2023-03-12T08:45:33.654Z,5.15
2023-03-12T08:46:30.761Z,5.15
2023-03-12T08:47:30.605Z,5.02
2023-03-12T08:48:30.627Z,5.01
2023-03-12T08:49:30.591Z,4.97
2023-03-12T08:50:30.705Z,5.04
2023-03-12T08:51:30.602Z,5
2023-03-12T08:52:30.601Z,5.07
2023-03-12T08:53:30.645Z,4.94
2023-03-12T08:54:30.624Z,5.04
2023-03-12T08:55:30.667Z,5.07
2023-03-12T08:56:33.386Z,5.16
2023-03-12T08:57:30.639Z,5.16
2023-03-12T08:58:30.665Z,5.18
2023-03-12T08:59:30.651Z,5.2
2023-03-12T09:00:30.770Z,5.16
2023-03-12T09:01:30.663Z,5.1
2023-03-12T09:02:30.635Z,5.18
2023-03-12T09:03:30.983Z,5.13
2023-03-12T09:04:30.804Z,5.2
2023-03-12T09:05:30.697Z,5.18
2023-03-12T09:06:30.635Z,5.15
2023-03-12T09:07:33.430Z,5.25
2023-03-12T09:08:30.638Z,5.23
2023-03-12T09:09:30.652Z,5.26
2023-03-12T09:10:33.570Z,5.36
2023-03-12T09:11:30.625Z,5.38
2023-03-12T09:12:30.701Z,5.44
2023-03-12T09:15:15.742Z,5.43
2023-03-12T09:16:15.783Z,5.52
2023-03-12T09:17:15.698Z,5.83
2023-03-12T09:18:15.700Z,5.94
2023-03-12T09:19:15.802Z,5.87
2023-03-12T09:20:15.732Z,5.99
2023-03-12T09:21:15.686Z,6.05
2023-03-12T09:22:18.748Z,6.09
2023-03-12T09:23:15.706Z,6.13
2023-03-12T09:24:15.843Z,6.17
2023-03-12T09:25:15.755Z,6.28
2023-03-12T09:26:15.694Z,6.5
2023-03-12T09:27:15.692Z,6.67
2023-03-12T09:28:21.825Z,6.78
2023-03-12T09:29:15.685Z,6.85
2023-03-12T09:30:15.735Z,6.9
2023-03-12T09:31:16.031Z,6.9
2023-03-12T09:32:15.753Z,7.01
2023-03-12T09:33:18.474Z,7.22
2023-03-12T09:34:15.775Z,7.28
2023-03-12T09:35:15.794Z,7.22
2023-03-12T09:36:15.545Z,7.22
2023-03-12T09:37:15.708Z,7.22
2023-03-12T09:38:15.722Z,7.13
2023-03-12T09:39:15.746Z,7.15
2023-03-12T09:40:15.592Z,7.29
2023-03-12T09:41:15.723Z,7.39
2023-03-12T09:42:15.753Z,7.28
2023-03-12T09:43:15.576Z,7.18
2023-03-12T09:44:18.855Z,7.19
2023-03-12T09:45:15.726Z,7.19
2023-03-12T09:46:16.007Z,7.32
2023-03-12T09:47:15.743Z,7.4
2023-03-12T09:48:15.544Z,7.39
2023-03-12T09:49:15.763Z,7.4
2023-03-12T09:50:15.610Z,7.37
2023-03-12T09:51:15.818Z,7.39
2023-03-12T09:52:15.965Z,7.39
2023-03-12T09:53:15.726Z,7.33
2023-03-12T09:54:15.754Z,7.28
2023-03-12T09:55:16.794Z,7.31
2023-03-12T09:56:15.736Z,7.22
2023-03-12T09:57:15.891Z,7.15
2023-03-12T09:58:15.751Z,7.29
2023-03-12T09:59:15.810Z,7.25
2023-03-12T10:00:18.970Z,7.14
2023-03-12T10:01:15.742Z,7.22
2023-03-12T10:02:15.753Z,7.28
2023-03-12T10:03:16.005Z,7.29
2023-03-12T10:04:15.848Z,7.26
2023-03-12T10:05:15.978Z,7.25
2023-03-12T10:06:18.894Z,7.25
2023-03-12T10:07:15.783Z,7.22
2023-03-12T10:08:33.671Z,7.32
2023-03-12T10:09:15.876Z,7.39
2023-03-12T10:10:15.849Z,7.13
2023-03-12T10:11:16.781Z,7.25
2023-03-12T10:12:15.744Z,7.15
2023-03-12T10:13:15.752Z,7.22
2023-03-12T10:14:25.441Z,7.15
2023-03-12T10:15:15.811Z,7.21
2023-03-12T10:16:15.955Z,7.26
2023-03-12T10:17:19.520Z,7.31
2023-03-12T10:18:16.191Z,7.37
2023-03-12T10:19:15.803Z,7.46
2023-03-12T10:20:15.751Z,7.36
2023-03-12T10:21:15.769Z,7.33
2023-03-12T10:22:18.567Z,7.28
2023-03-12T10:23:15.778Z,7.32
2023-03-12T10:24:15.776Z,7.32
2023-03-12T10:25:15.770Z,7.4
2023-03-12T10:26:15.624Z,7.33
2023-03-12T10:27:15.764Z,7.4
2023-03-12T10:28:15.767Z,7.4
2023-03-12T10:29:15.816Z,7.44
2023-03-12T10:30:15.783Z,7.37
2023-03-12T10:31:15.967Z,7.47
2023-03-12T10:32:15.853Z,7.33
2023-03-12T10:33:15.822Z,7.32
2023-03-12T10:34:15.803Z,7.19
2023-03-12T10:35:15.840Z,7.22
2023-03-12T10:36:15.936Z,7.23
2023-03-12T10:37:15.769Z,7.18
2023-03-12T10:38:15.844Z,7.14
2023-03-12T10:39:15.807Z,7.13
2023-03-12T10:40:15.793Z,7.19
2023-03-12T10:41:15.830Z,7.19
2023-03-12T10:42:15.773Z,7.25
2023-03-12T10:43:15.712Z,7.11
2023-03-12T10:44:15.817Z,7.11
2023-03-12T10:45:15.829Z,7.28
2023-03-12T10:46:15.968Z,7.19
2023-03-12T10:47:15.660Z,7.14
2023-03-12T10:48:15.838Z,7.14
2023-03-12T10:49:18.814Z,7.15
2023-03-12T10:50:15.648Z,7.14
2023-03-12T10:51:15.706Z,7.13
2023-03-12T10:52:15.794Z,7.15
2023-03-12T10:53:15.860Z,7.18
2023-03-12T10:54:15.630Z,6.96
2023-03-12T10:55:15.681Z,7.13
2023-03-12T10:56:16.162Z,7.11
2023-03-12T10:57:15.804Z,7
2023-03-12T10:58:15.803Z,6.97
2023-03-12T10:59:17.980Z,7.07
2023-03-12T11:00:15.963Z,7.01
2023-03-12T11:01:15.910Z,7.18
2023-03-12T11:02:15.802Z,7.13
2023-03-12T11:03:16.860Z,7.14
2023-03-12T11:04:15.846Z,7.14
2023-03-12T11:05:18.828Z,7.23
2023-03-12T11:06:16.067Z,7.25
2023-03-12T11:07:15.853Z,7.28
2023-03-12T11:08:15.821Z,7.26
2023-03-12T11:09:21.962Z,7.15
2023-03-12T11:10:18.220Z,7.32
2023-03-12T11:11:15.872Z,7.21
2023-03-12T11:12:15.839Z,7.19
2023-03-12T11:13:15.657Z,7.29
2023-03-12T11:14:15.834Z,7.28
2023-03-12T11:15:15.821Z,7.23
2023-03-12T11:16:16.198Z,7.22
2023-03-12T11:17:15.817Z,7.15
2023-03-12T11:18:15.834Z,7.22
2023-03-12T11:19:15.842Z,7.33
2023-03-12T11:20:15.862Z,7.32
2023-03-12T11:21:15.900Z,7.33
2023-03-12T11:22:15.860Z,7.31
2023-03-12T11:23:15.858Z,7.14
2023-03-12T11:24:15.871Z,7.22
2023-03-12T11:25:15.883Z,7.37
2023-03-12T11:26:15.881Z,7.14
2023-03-12T11:27:18.695Z,7.19
2023-03-12T11:28:15.927Z,7.29
2023-03-12T11:29:15.946Z,7.23
2023-03-12T11:30:16.109Z,7.37
2023-03-12T11:31:16.291Z,7.28
2023-03-12T11:32:15.768Z,7.29
2023-03-12T11:33:15.844Z,7.44
2023-03-12T11:34:15.878Z,7.28
2023-03-12T11:35:15.750Z,7.31
2023-03-12T11:36:15.926Z,7.31
2023-03-12T11:37:15.720Z,7.23
2023-03-12T11:38:18.620Z,7.28
2023-03-12T11:39:15.863Z,7.26
2023-03-12T11:40:15.865Z,7.31
2023-03-12T11:41:15.915Z,7.19
2023-03-12T11:42:15.853Z,7.29
2023-03-12T11:43:15.883Z,7.23
2023-03-12T11:44:15.903Z,7.33
2023-03-12T11:45:15.864Z,7.28
2023-03-12T11:46:15.884Z,7.32
2023-03-12T11:47:16.048Z,7.4
2023-03-12T11:48:16.137Z,7.37
2023-03-12T11:49:18.582Z,7.33
2023-03-12T11:50:15.896Z,7.32
2023-03-12T11:51:15.884Z,7.28
2023-03-12T11:52:15.925Z,7.31
2023-03-12T11:53:15.869Z,7.18
2023-03-12T11:54:15.790Z,7.28
2023-03-12T11:55:18.691Z,7.23
2023-03-12T11:56:15.874Z,7.31
2023-03-12T11:57:15.899Z,7.4
2023-03-12T11:58:15.990Z,7.43
2023-03-12T11:59:15.908Z,7.41
2023-03-12T12:00:18.758Z,7.36
2023-03-12T12:01:15.945Z,7.33
2023-03-12T12:02:16.041Z,7.31
2023-03-12T12:03:16.118Z,7.41
2023-03-12T12:04:15.885Z,7.4
2023-03-12T12:05:15.879Z,7.37
2023-03-12T12:06:16.940Z,7.41
2023-03-12T12:07:15.921Z,7.4
2023-03-12T12:08:15.900Z,7.44
2023-03-12T12:09:15.917Z,7.44
2023-03-12T12:10:15.745Z,7.43
2023-03-12T12:11:18.676Z,7.47
2023-03-12T12:12:15.907Z,7.47
2023-03-12T12:13:15.898Z,7.51
2023-03-12T12:14:15.885Z,7.51
2023-03-12T12:15:15.944Z,7.55
2023-03-12T12:16:16.067Z,7.59
2023-03-12T12:17:15.915Z,7.46
2023-03-12T12:18:15.921Z,7.55
2023-03-12T12:19:15.925Z,7.64
2023-03-12T12:20:15.937Z,7.64
2023-03-12T12:21:15.748Z,7.7
2023-03-12T12:22:17.098Z,7.61
2023-03-12T12:23:16.057Z,7.67
2023-03-12T12:24:18.703Z,7.74
2023-03-12T12:25:15.990Z,7.58
2023-03-12T12:26:15.939Z,7.58
2023-03-12T12:27:18.987Z,7.62
2023-03-12T12:28:15.918Z,7.67
2023-03-12T12:29:15.961Z,7.74
2023-03-12T12:30:15.906Z,7.69
2023-03-12T12:31:15.952Z,7.72
2023-03-12T12:32:15.993Z,7.78
2023-03-12T12:33:18.827Z,7.85
2023-03-12T12:34:15.925Z,7.7
2023-03-12T12:35:18.743Z,7.9
2023-03-12T12:36:16.174Z,7.85
2023-03-12T12:37:15.913Z,7.87
2023-03-12T12:38:18.982Z,7.84
2023-03-12T12:39:15.942Z,7.84
2023-03-12T12:40:16.002Z,7.88
2023-03-12T12:41:15.955Z,7.95
2023-03-12T12:42:15.920Z,7.75
2023-03-12T12:43:15.953Z,7.78
2023-03-12T12:44:19.710Z,7.72
2023-03-12T12:45:15.917Z,7.85
2023-03-12T12:46:16.196Z,7.91
2023-03-12T12:47:15.967Z,7.85
2023-03-12T12:48:15.930Z,7.9
2023-03-12T12:49:19.753Z,7.85
2023-03-12T12:50:15.938Z,7.95
2023-03-12T12:51:16.016Z,7.93
2023-03-12T12:52:16.080Z,7.91
2023-03-12T12:53:15.966Z,7.9
2023-03-12T12:54:15.984Z,7.9
2023-03-12T12:55:15.965Z,7.69
2023-03-12T12:56:18.750Z,7.88
2023-03-12T12:57:16.019Z,7.91
2023-03-12T12:58:15.929Z,7.9
2023-03-12T12:59:15.991Z,7.81
2023-03-12T13:00:15.967Z,7.85
2023-03-12T13:01:16.135Z,7.83
2023-03-12T13:02:15.966Z,7.72
2023-03-12T13:03:16.062Z,7.75
2023-03-12T13:04:16.229Z,7.66
2023-03-12T13:05:15.964Z,7.62
2023-03-12T13:06:16.015Z,7.66
2023-03-12T13:07:15.966Z,7.8
2023-03-12T13:08:15.965Z,7.77
2023-03-12T13:09:15.992Z,7.74
2023-03-12T13:10:15.998Z,7.67
2023-03-12T13:11:27.417Z,7.62
2023-03-12T13:12:15.951Z,7.64
2023-03-12T13:13:15.954Z,7.75
2023-03-12T13:14:16.007Z,7.61
2023-03-12T13:15:16.110Z,7.66
2023-03-12T13:16:17.240Z,7.8
2023-03-12T13:17:15.976Z,7.56
2023-03-12T13:18:15.990Z,7.74
2023-03-12T13:19:16.210Z,7.78
2023-03-12T13:20:16.062Z,7.87
2023-03-12T13:21:16.003Z,7.74
2023-03-12T13:22:16.002Z,7.74
2023-03-12T13:23:16.006Z,7.67
2023-03-12T13:24:18.186Z,7.78
2023-03-12T13:25:15.990Z,7.87
2023-03-12T13:26:16.005Z,7.91
2023-03-12T13:27:16.209Z,7.88
2023-03-12T13:28:15.991Z,7.93
2023-03-12T13:29:17.567Z,7.88
2023-03-12T13:30:16.015Z,7.74